sensor_id;sensor_type;location;lat;lon;timestamp;P1;durP1;ratioP1;P2;durP2;ratioP2
11004;SDS011;5555;59.622;16.556;2022-08-01T00:00:30;2.00;;;0.63;;
11004;SDS011;5555;59.622;16.556;2022-08-01T00:02:56;2.53;;;0.80;;
11004;SDS011;5555;59.622;16.556;2022-08-01T00:05:22;2.33;;;0.50;;
11004;SDS011;5555;59.622;16.556;2022-08-01T00:07:48;1.33;;;0.70;;
11004;SDS011;5555;59.622;16.556;2022-08-01T00:10:14;3.90;;;0.93;;
11004;SDS011;5555;59.622;16.556;2022-08-01T00:12:41;2.60;;;0.90;;
11004;SDS011;5555;59.622;16.556;2022-08-01T00:15:08;1.40;;;0.80;;
11004;SDS011;5555;59.622;16.556;2022-08-01T00:17:35;2.43;;;0.80;;
11004;SDS011;5555;59.622;16.556;2022-08-01T00:20:02;2.17;;;0.60;;
11004;SDS011;5555;59.622;16.556;2022-08-01T00:22:32;2.23;;;0.70;;
11004;SDS011;5555;59.622;16.556;2022-08-01T00:24:59;2.53;;;0.90;;
11004;SDS011;5555;59.622;16.556;2022-08-01T00:27:25;1.10;;;0.73;;
11004;SDS011;5555;59.622;16.556;2022-08-01T00:29:50;2.77;;;0.77;;
11004;SDS011;5555;59.622;16.556;2022-08-01T00:32:16;2.20;;;0.70;;
11004;SDS011;5555;59.622;16.556;2022-08-01T00:34:42;1.23;;;0.77;;
11004;SDS011;5555;59.622;16.556;2022-08-01T00:37:08;1.50;;;0.90;;
11004;SDS011;5555;59.622;16.556;2022-08-01T00:39:33;0.77;;;0.53;;
11004;SDS011;5555;59.622;16.556;2022-08-01T00:41:59;1.47;;;0.80;;
11004;SDS011;5555;59.622;16.556;2022-08-01T00:44:30;1.77;;;0.70;;
11004;SDS011;5555;59.622;16.556;2022-08-01T00:46:56;2.60;;;0.97;;
11004;SDS011;5555;59.622;16.556;2022-08-01T00:49:21;1.23;;;0.70;;
11004;SDS011;5555;59.622;16.556;2022-08-01T00:51:47;1.47;;;0.90;;
11004;SDS011;5555;59.622;16.556;2022-08-01T00:54:13;1.53;;;0.60;;
11004;SDS011;5555;59.622;16.556;2022-08-01T00:56:39;2.03;;;0.87;;
11004;SDS011;5555;59.622;16.556;2022-08-01T00:59:06;1.80;;;1.00;;
11004;SDS011;5555;59.622;16.556;2022-08-01T01:01:32;2.30;;;0.90;;
11004;SDS011;5555;59.622;16.556;2022-08-01T01:03:58;1.10;;;0.90;;
11004;SDS011;5555;59.622;16.556;2022-08-01T01:09:19;1.37;;;0.73;;
11004;SDS011;5555;59.622;16.556;2022-08-01T01:11:55;1.57;;;0.67;;
11004;SDS011;5555;59.622;16.556;2022-08-01T01:14:58;1.63;;;0.67;;
11004;SDS011;5555;59.622;16.556;2022-08-01T01:20:40;4.57;;;1.10;;
11004;SDS011;5555;59.622;16.556;2022-08-01T01:34:33;1.73;;;0.83;;
11004;SDS011;5555;59.622;16.556;2022-08-01T01:37:06;2.27;;;1.10;;
11004;SDS011;5555;59.622;16.556;2022-08-01T01:39:36;3.40;;;0.87;;
11004;SDS011;5555;59.622;16.556;2022-08-01T01:42:04;1.73;;;0.97;;
11004;SDS011;5555;59.622;16.556;2022-08-01T01:44:31;2.17;;;0.70;;
11004;SDS011;5555;59.622;16.556;2022-08-01T01:46:58;1.27;;;0.60;;
11004;SDS011;5555;59.622;16.556;2022-08-01T01:49:25;1.47;;;0.60;;
11004;SDS011;5555;59.622;16.556;2022-08-01T01:51:53;2.07;;;0.90;;
11004;SDS011;5555;59.622;16.556;2022-08-01T01:54:24;0.90;;;0.50;;
11004;SDS011;5555;59.622;16.556;2022-08-01T01:56:59;3.43;;;0.80;;
11004;SDS011;5555;59.622;16.556;2022-08-01T01:59:27;1.50;;;0.80;;
11004;SDS011;5555;59.622;16.556;2022-08-01T02:01:57;1.23;;;0.77;;
11004;SDS011;5555;59.622;16.556;2022-08-01T02:04:26;2.43;;;0.70;;
11004;SDS011;5555;59.622;16.556;2022-08-01T02:06:53;1.90;;;0.70;;
11004;SDS011;5555;59.622;16.556;2022-08-01T02:09:20;2.50;;;0.80;;
11004;SDS011;5555;59.622;16.556;2022-08-01T02:11:48;2.63;;;0.80;;
11004;SDS011;5555;59.622;16.556;2022-08-01T02:14:15;2.37;;;0.80;;
11004;SDS011;5555;59.622;16.556;2022-08-01T02:16:44;1.40;;;0.70;;
11004;SDS011;5555;59.622;16.556;2022-08-01T02:19:12;1.57;;;0.90;;
11004;SDS011;5555;59.622;16.556;2022-08-01T02:26:52;2.70;;;0.83;;
11004;SDS011;5555;59.622;16.556;2022-08-01T02:29:25;1.47;;;1.00;;
11004;SDS011;5555;59.622;16.556;2022-08-01T02:31:55;1.40;;;0.83;;
11004;SDS011;5555;59.622;16.556;2022-08-01T02:34:23;1.70;;;0.90;;
11004;SDS011;5555;59.622;16.556;2022-08-01T02:36:53;1.30;;;0.53;;
11004;SDS011;5555;59.622;16.556;2022-08-01T02:39:21;1.47;;;0.70;;
11004;SDS011;5555;59.622;16.556;2022-08-01T02:41:48;1.33;;;0.67;;
11004;SDS011;5555;59.622;16.556;2022-08-01T02:44:24;0.87;;;0.70;;
11004;SDS011;5555;59.622;16.556;2022-08-01T02:46:59;3.00;;;1.00;;
11004;SDS011;5555;59.622;16.556;2022-08-01T02:49:51;2.23;;;0.80;;
11004;SDS011;5555;59.622;16.556;2022-08-01T02:52:17;1.87;;;0.80;;
11004;SDS011;5555;59.622;16.556;2022-08-01T02:54:45;0.90;;;0.80;;
11004;SDS011;5555;59.622;16.556;2022-08-01T02:57:14;2.67;;;0.60;;
11004;SDS011;5555;59.622;16.556;2022-08-01T02:59:41;2.17;;;1.00;;
11004;SDS011;5555;59.622;16.556;2022-08-01T03:02:09;2.47;;;0.87;;
11004;SDS011;5555;59.622;16.556;2022-08-01T03:04:36;4.13;;;1.13;;
11004;SDS011;5555;59.622;16.556;2022-08-01T03:07:04;1.73;;;0.80;;
11004;SDS011;5555;59.622;16.556;2022-08-01T03:09:33;4.33;;;1.00;;
11004;SDS011;5555;59.622;16.556;2022-08-01T03:12:03;1.40;;;0.97;;
11004;SDS011;5555;59.622;16.556;2022-08-01T03:14:32;3.13;;;1.00;;
11004;SDS011;5555;59.622;16.556;2022-08-01T03:17:02;2.30;;;1.03;;
11004;SDS011;5555;59.622;16.556;2022-08-01T03:19:30;5.20;;;1.10;;
11004;SDS011;5555;59.622;16.556;2022-08-01T03:21:57;3.77;;;1.10;;
11004;SDS011;5555;59.622;16.556;2022-08-01T03:24:25;1.87;;;1.13;;
11004;SDS011;5555;59.622;16.556;2022-08-01T03:26:52;0.80;;;0.70;;
11004;SDS011;5555;59.622;16.556;2022-08-01T03:29:22;1.20;;;0.80;;
11004;SDS011;5555;59.622;16.556;2022-08-01T03:31:50;1.80;;;0.90;;
11004;SDS011;5555;59.622;16.556;2022-08-01T03:34:17;3.47;;;0.97;;
11004;SDS011;5555;59.622;16.556;2022-08-01T03:36:46;2.23;;;0.90;;
11004;SDS011;5555;59.622;16.556;2022-08-01T03:39:25;2.20;;;1.07;;
11004;SDS011;5555;59.622;16.556;2022-08-01T03:41:56;2.53;;;0.90;;
11004;SDS011;5555;59.622;16.556;2022-08-01T03:44:31;3.93;;;1.20;;
11004;SDS011;5555;59.622;16.556;2022-08-01T03:47:04;2.00;;;0.80;;
11004;SDS011;5555;59.622;16.556;2022-08-01T03:49:33;3.33;;;1.00;;
11004;SDS011;5555;59.622;16.556;2022-08-01T03:52:02;2.00;;;1.10;;
11004;SDS011;5555;59.622;16.556;2022-08-01T03:54:32;1.90;;;0.77;;
11004;SDS011;5555;59.622;16.556;2022-08-01T03:57:00;3.23;;;0.70;;
11004;SDS011;5555;59.622;16.556;2022-08-01T03:59:28;2.53;;;0.97;;
11004;SDS011;5555;59.622;16.556;2022-08-01T04:01:54;1.97;;;0.90;;
11004;SDS011;5555;59.622;16.556;2022-08-01T04:04:21;3.03;;;0.97;;
11004;SDS011;5555;59.622;16.556;2022-08-01T04:06:47;7.80;;;1.03;;
11004;SDS011;5555;59.622;16.556;2022-08-01T04:09:16;4.13;;;1.50;;
11004;SDS011;5555;59.622;16.556;2022-08-01T04:11:42;4.70;;;1.40;;
11004;SDS011;5555;59.622;16.556;2022-08-01T04:14:08;4.30;;;1.30;;
11004;SDS011;5555;59.622;16.556;2022-08-01T04:16:34;9.00;;;1.60;;
11004;SDS011;5555;59.622;16.556;2022-08-01T04:18:59;1.50;;;1.00;;
11004;SDS011;5555;59.622;16.556;2022-08-01T04:21:26;9.50;;;1.30;;
11004;SDS011;5555;59.622;16.556;2022-08-01T04:23:54;2.07;;;0.90;;
11004;SDS011;5555;59.622;16.556;2022-08-01T04:26:24;2.87;;;0.97;;
11004;SDS011;5555;59.622;16.556;2022-08-01T04:28:50;3.23;;;0.87;;
11004;SDS011;5555;59.622;16.556;2022-08-01T04:31:19;1.97;;;1.00;;
11004;SDS011;5555;59.622;16.556;2022-08-01T04:33:48;1.83;;;0.97;;
11004;SDS011;5555;59.622;16.556;2022-08-01T04:36:15;3.77;;;1.07;;
11004;SDS011;5555;59.622;16.556;2022-08-01T04:38:45;3.17;;;0.90;;
11004;SDS011;5555;59.622;16.556;2022-08-01T04:41:13;1.97;;;1.03;;
11004;SDS011;5555;59.622;16.556;2022-08-01T04:43:40;2.07;;;1.00;;
11004;SDS011;5555;59.622;16.556;2022-08-01T04:46:07;1.47;;;0.83;;
11004;SDS011;5555;59.622;16.556;2022-08-01T04:48:34;1.90;;;0.80;;
11004;SDS011;5555;59.622;16.556;2022-08-01T04:51:02;1.30;;;0.80;;
11004;SDS011;5555;59.622;16.556;2022-08-01T04:53:28;1.97;;;0.77;;
11004;SDS011;5555;59.622;16.556;2022-08-01T04:55:57;1.50;;;0.80;;
11004;SDS011;5555;59.622;16.556;2022-08-01T04:58:23;3.17;;;1.00;;
11004;SDS011;5555;59.622;16.556;2022-08-01T05:00:49;3.93;;;0.90;;
11004;SDS011;5555;59.622;16.556;2022-08-01T05:03:15;1.13;;;0.73;;
11004;SDS011;5555;59.622;16.556;2022-08-01T05:05:41;1.27;;;0.80;;
11004;SDS011;5555;59.622;16.556;2022-08-01T05:08:06;1.70;;;0.90;;
11004;SDS011;5555;59.622;16.556;2022-08-01T05:10:32;2.20;;;0.83;;
11004;SDS011;5555;59.622;16.556;2022-08-01T05:12:58;2.47;;;0.90;;
11004;SDS011;5555;59.622;16.556;2022-08-01T05:15:24;1.13;;;0.80;;
11004;SDS011;5555;59.622;16.556;2022-08-01T05:17:50;1.33;;;0.87;;
11004;SDS011;5555;59.622;16.556;2022-08-01T05:20:15;1.40;;;0.93;;
11004;SDS011;5555;59.622;16.556;2022-08-01T05:22:41;1.13;;;0.90;;
11004;SDS011;5555;59.622;16.556;2022-08-01T05:25:07;1.43;;;0.73;;
11004;SDS011;5555;59.622;16.556;2022-08-01T05:27:33;1.50;;;0.83;;
11004;SDS011;5555;59.622;16.556;2022-08-01T05:30:04;1.47;;;0.87;;
11004;SDS011;5555;59.622;16.556;2022-08-01T05:32:31;4.43;;;1.20;;
11004;SDS011;5555;59.622;16.556;2022-08-01T05:34:57;10.97;;;1.47;;
11004;SDS011;5555;59.622;16.556;2022-08-01T05:37:22;3.10;;;1.23;;
11004;SDS011;5555;59.622;16.556;2022-08-01T05:39:48;1.40;;;0.93;;
11004;SDS011;5555;59.622;16.556;2022-08-01T05:42:13;7.47;;;1.50;;
11004;SDS011;5555;59.622;16.556;2022-08-01T05:44:39;1.57;;;0.93;;
11004;SDS011;5555;59.622;16.556;2022-08-01T05:47:05;2.63;;;0.70;;
11004;SDS011;5555;59.622;16.556;2022-08-01T05:49:31;1.10;;;0.90;;
11004;SDS011;5555;59.622;16.556;2022-08-01T05:51:56;2.93;;;0.93;;
11004;SDS011;5555;59.622;16.556;2022-08-01T05:54:22;2.10;;;0.80;;
11004;SDS011;5555;59.622;16.556;2022-08-01T05:56:48;2.53;;;0.90;;
11004;SDS011;5555;59.622;16.556;2022-08-01T05:59:13;3.63;;;1.00;;
11004;SDS011;5555;59.622;16.556;2022-08-01T06:01:39;2.33;;;0.90;;
11004;SDS011;5555;59.622;16.556;2022-08-01T06:04:04;3.37;;;1.00;;
11004;SDS011;5555;59.622;16.556;2022-08-01T06:06:30;1.07;;;0.80;;
11004;SDS011;5555;59.622;16.556;2022-08-01T06:08:56;1.00;;;0.90;;
11004;SDS011;5555;59.622;16.556;2022-08-01T06:11:21;5.40;;;1.20;;
11004;SDS011;5555;59.622;16.556;2022-08-01T06:13:47;4.37;;;1.03;;
11004;SDS011;5555;59.622;16.556;2022-08-01T06:16:13;2.43;;;0.80;;
11004;SDS011;5555;59.622;16.556;2022-08-01T06:18:38;3.50;;;1.20;;
11004;SDS011;5555;59.622;16.556;2022-08-01T06:21:04;2.20;;;0.90;;
11004;SDS011;5555;59.622;16.556;2022-08-01T06:23:30;2.97;;;1.20;;
11004;SDS011;5555;59.622;16.556;2022-08-01T06:25:56;2.30;;;0.90;;
11004;SDS011;5555;59.622;16.556;2022-08-01T06:28:23;5.50;;;1.00;;
11004;SDS011;5555;59.622;16.556;2022-08-01T06:30:48;2.77;;;1.00;;
11004;SDS011;5555;59.622;16.556;2022-08-01T06:33:14;2.43;;;0.97;;
11004;SDS011;5555;59.622;16.556;2022-08-01T06:35:40;2.57;;;1.20;;
11004;SDS011;5555;59.622;16.556;2022-08-01T06:38:05;1.43;;;1.00;;
11004;SDS011;5555;59.622;16.556;2022-08-01T06:40:31;1.33;;;0.80;;
11004;SDS011;5555;59.622;16.556;2022-08-01T06:42:57;5.23;;;1.20;;
11004;SDS011;5555;59.622;16.556;2022-08-01T06:45:22;2.03;;;0.93;;
11004;SDS011;5555;59.622;16.556;2022-08-01T06:47:50;2.57;;;1.10;;
11004;SDS011;5555;59.622;16.556;2022-08-01T06:50:16;1.97;;;0.83;;
11004;SDS011;5555;59.622;16.556;2022-08-01T06:52:42;1.70;;;0.70;;
11004;SDS011;5555;59.622;16.556;2022-08-01T06:55:08;1.00;;;0.90;;
11004;SDS011;5555;59.622;16.556;2022-08-01T06:57:34;2.80;;;0.97;;
11004;SDS011;5555;59.622;16.556;2022-08-01T07:00:06;2.67;;;1.20;;
11004;SDS011;5555;59.622;16.556;2022-08-01T07:02:34;1.57;;;1.30;;
11004;SDS011;5555;59.622;16.556;2022-08-01T07:05:01;2.97;;;1.07;;
11004;SDS011;5555;59.622;16.556;2022-08-01T07:07:28;1.80;;;1.10;;
11004;SDS011;5555;59.622;16.556;2022-08-01T07:09:54;1.70;;;0.70;;
11004;SDS011;5555;59.622;16.556;2022-08-01T07:12:20;6.13;;;1.50;;
11004;SDS011;5555;59.622;16.556;2022-08-01T07:14:46;3.00;;;1.07;;
11004;SDS011;5555;59.622;16.556;2022-08-01T07:17:11;4.63;;;1.20;;
11004;SDS011;5555;59.622;16.556;2022-08-01T07:19:37;2.23;;;1.13;;
11004;SDS011;5555;59.622;16.556;2022-08-01T07:22:03;1.40;;;0.77;;
11004;SDS011;5555;59.622;16.556;2022-08-01T07:24:28;3.10;;;1.20;;
11004;SDS011;5555;59.622;16.556;2022-08-01T07:26:54;4.67;;;1.10;;
11004;SDS011;5555;59.622;16.556;2022-08-01T07:29:23;1.63;;;1.10;;
11004;SDS011;5555;59.622;16.556;2022-08-01T07:31:49;1.83;;;1.10;;
11004;SDS011;5555;59.622;16.556;2022-08-01T07:34:19;4.80;;;1.37;;
11004;SDS011;5555;59.622;16.556;2022-08-01T07:36:45;2.37;;;0.93;;
11004;SDS011;5555;59.622;16.556;2022-08-01T07:39:10;2.13;;;1.17;;
11004;SDS011;5555;59.622;16.556;2022-08-01T07:41:36;1.50;;;1.03;;
11004;SDS011;5555;59.622;16.556;2022-08-01T07:44:02;2.93;;;1.30;;
11004;SDS011;5555;59.622;16.556;2022-08-01T07:46:28;1.70;;;0.90;;
11004;SDS011;5555;59.622;16.556;2022-08-01T07:48:55;2.70;;;1.20;;
11004;SDS011;5555;59.622;16.556;2022-08-01T07:51:21;2.23;;;1.03;;
11004;SDS011;5555;59.622;16.556;2022-08-01T07:53:46;1.33;;;1.00;;
11004;SDS011;5555;59.622;16.556;2022-08-01T07:56:12;1.50;;;1.40;;
11004;SDS011;5555;59.622;16.556;2022-08-01T07:58:37;2.80;;;0.97;;
11004;SDS011;5555;59.622;16.556;2022-08-01T08:01:03;3.70;;;1.30;;
11004;SDS011;5555;59.622;16.556;2022-08-01T08:03:29;1.07;;;0.90;;
11004;SDS011;5555;59.622;16.556;2022-08-01T08:05:55;2.37;;;1.00;;
11004;SDS011;5555;59.622;16.556;2022-08-01T08:08:21;2.23;;;0.90;;
11004;SDS011;5555;59.622;16.556;2022-08-01T08:10:47;4.40;;;1.30;;
11004;SDS011;5555;59.622;16.556;2022-08-01T08:13:12;1.33;;;1.10;;
11004;SDS011;5555;59.622;16.556;2022-08-01T08:15:38;1.33;;;0.77;;
11004;SDS011;5555;59.622;16.556;2022-08-01T08:18:04;3.23;;;1.13;;
11004;SDS011;5555;59.622;16.556;2022-08-01T08:20:30;1.70;;;0.90;;
11004;SDS011;5555;59.622;16.556;2022-08-01T08:22:56;3.03;;;1.00;;
11004;SDS011;5555;59.622;16.556;2022-08-01T08:25:23;1.40;;;1.00;;
11004;SDS011;5555;59.622;16.556;2022-08-01T08:27:50;1.30;;;1.00;;
11004;SDS011;5555;59.622;16.556;2022-08-01T08:30:16;1.33;;;0.87;;
11004;SDS011;5555;59.622;16.556;2022-08-01T08:32:43;1.10;;;1.00;;
11004;SDS011;5555;59.622;16.556;2022-08-01T08:35:08;1.40;;;1.00;;
11004;SDS011;5555;59.622;16.556;2022-08-01T08:37:35;1.30;;;0.87;;
11004;SDS011;5555;59.622;16.556;2022-08-01T08:40:02;2.43;;;1.10;;
11004;SDS011;5555;59.622;16.556;2022-08-01T08:42:28;4.57;;;1.43;;
11004;SDS011;5555;59.622;16.556;2022-08-01T08:44:54;3.50;;;1.40;;
11004;SDS011;5555;59.622;16.556;2022-08-01T08:47:20;6.10;;;1.30;;
11004;SDS011;5555;59.622;16.556;2022-08-01T08:49:49;4.50;;;1.20;;
11004;SDS011;5555;59.622;16.556;2022-08-01T08:52:17;3.87;;;1.33;;
11004;SDS011;5555;59.622;16.556;2022-08-01T08:54:45;4.10;;;1.20;;
11004;SDS011;5555;59.622;16.556;2022-08-01T08:57:13;3.17;;;1.20;;
11004;SDS011;5555;59.622;16.556;2022-08-01T08:59:39;2.83;;;1.10;;
11004;SDS011;5555;59.622;16.556;2022-08-01T09:02:05;2.17;;;1.20;;
11004;SDS011;5555;59.622;16.556;2022-08-01T09:04:34;1.10;;;0.87;;
11004;SDS011;5555;59.622;16.556;2022-08-01T09:07:01;2.30;;;1.13;;
11004;SDS011;5555;59.622;16.556;2022-08-01T09:09:30;2.40;;;1.20;;
11004;SDS011;5555;59.622;16.556;2022-08-01T09:11:56;2.77;;;1.03;;
11004;SDS011;5555;59.622;16.556;2022-08-01T09:14:21;2.30;;;1.10;;
11004;SDS011;5555;59.622;16.556;2022-08-01T09:17:10;1.35;;;1.10;;
11004;SDS011;5555;59.622;16.556;2022-08-01T09:19:41;2.20;;;1.00;;
11004;SDS011;5555;59.622;16.556;2022-08-01T09:22:12;2.10;;;1.10;;
11004;SDS011;5555;59.622;16.556;2022-08-01T09:24:42;1.40;;;0.83;;
11004;SDS011;5555;59.622;16.556;2022-08-01T09:27:26;2.57;;;1.00;;
11004;SDS011;5555;59.622;16.556;2022-08-01T09:29:52;2.87;;;1.03;;
11004;SDS011;5555;59.622;16.556;2022-08-01T09:32:19;3.57;;;1.17;;
11004;SDS011;5555;59.622;16.556;2022-08-01T09:34:48;0.87;;;0.83;;
11004;SDS011;5555;59.622;16.556;2022-08-01T09:37:13;1.80;;;1.10;;
11004;SDS011;5555;59.622;16.556;2022-08-01T09:39:42;0.90;;;0.80;;
11004;SDS011;5555;59.622;16.556;2022-08-01T09:42:23;1.27;;;1.00;;
11004;SDS011;5555;59.622;16.556;2022-08-01T09:44:51;1.33;;;0.90;;
11004;SDS011;5555;59.622;16.556;2022-08-01T09:47:17;1.37;;;0.90;;
11004;SDS011;5555;59.622;16.556;2022-08-01T09:49:46;1.67;;;1.00;;
11004;SDS011;5555;59.622;16.556;2022-08-01T09:52:22;1.90;;;1.10;;
11004;SDS011;5555;59.622;16.556;2022-08-01T09:57:23;3.70;;;1.20;;
11004;SDS011;5555;59.622;16.556;2022-08-01T09:59:51;4.60;;;1.30;;
11004;SDS011;5555;59.622;16.556;2022-08-01T10:02:31;2.33;;;1.27;;
11004;SDS011;5555;59.622;16.556;2022-08-01T10:04:59;3.83;;;1.30;;
11004;SDS011;5555;59.622;16.556;2022-08-01T10:07:29;3.30;;;1.10;;
11004;SDS011;5555;59.622;16.556;2022-08-01T10:09:55;2.10;;;1.00;;
11004;SDS011;5555;59.622;16.556;2022-08-01T10:12:21;4.00;;;1.33;;
11004;SDS011;5555;59.622;16.556;2022-08-01T10:14:50;1.83;;;1.10;;
11004;SDS011;5555;59.622;16.556;2022-08-01T10:17:20;2.57;;;1.00;;
11004;SDS011;5555;59.622;16.556;2022-08-01T10:19:49;2.50;;;1.50;;
11004;SDS011;5555;59.622;16.556;2022-08-01T10:22:19;3.80;;;1.20;;
11004;SDS011;5555;59.622;16.556;2022-08-01T10:24:48;2.40;;;1.00;;
11004;SDS011;5555;59.622;16.556;2022-08-01T10:27:18;4.03;;;1.00;;
11004;SDS011;5555;59.622;16.556;2022-08-01T10:30:00;2.77;;;0.90;;
11004;SDS011;5555;59.622;16.556;2022-08-01T10:32:33;2.63;;;1.03;;
11004;SDS011;5555;59.622;16.556;2022-08-01T10:35:00;2.20;;;1.20;;
11004;SDS011;5555;59.622;16.556;2022-08-01T10:37:25;1.30;;;1.00;;
11004;SDS011;5555;59.622;16.556;2022-08-01T10:39:51;1.70;;;1.17;;
11004;SDS011;5555;59.622;16.556;2022-08-01T10:42:18;1.50;;;1.10;;
11004;SDS011;5555;59.622;16.556;2022-08-01T10:44:44;1.87;;;1.07;;
11004;SDS011;5555;59.622;16.556;2022-08-01T10:47:15;1.33;;;0.93;;
11004;SDS011;5555;59.622;16.556;2022-08-01T10:52:18;1.90;;;1.07;;
11004;SDS011;5555;59.622;16.556;2022-08-01T10:54:44;1.47;;;1.03;;
11004;SDS011;5555;59.622;16.556;2022-08-01T10:57:11;1.63;;;1.10;;
11004;SDS011;5555;59.622;16.556;2022-08-01T10:59:51;2.40;;;1.00;;
11004;SDS011;5555;59.622;16.556;2022-08-01T11:02:28;2.50;;;1.10;;
11004;SDS011;5555;59.622;16.556;2022-08-01T11:04:58;1.87;;;1.20;;
11004;SDS011;5555;59.622;16.556;2022-08-01T11:07:38;2.87;;;1.20;;
11004;SDS011;5555;59.622;16.556;2022-08-01T11:12:53;4.53;;;1.20;;
11004;SDS011;5555;59.622;16.556;2022-08-01T11:15:19;2.27;;;1.37;;
11004;SDS011;5555;59.622;16.556;2022-08-01T11:17:50;3.17;;;1.50;;
11004;SDS011;5555;59.622;16.556;2022-08-01T11:20:21;4.70;;;1.50;;
11004;SDS011;5555;59.622;16.556;2022-08-01T11:30:46;2.20;;;1.37;;
11004;SDS011;5555;59.622;16.556;2022-08-01T11:33:13;2.60;;;1.37;;
11004;SDS011;5555;59.622;16.556;2022-08-01T11:38:44;2.17;;;1.80;;
11004;SDS011;5555;59.622;16.556;2022-08-01T11:41:23;1.70;;;1.53;;
11004;SDS011;5555;59.622;16.556;2022-08-01T11:43:54;3.83;;;1.70;;
11004;SDS011;5555;59.622;16.556;2022-08-01T11:51:49;3.67;;;2.07;;
11004;SDS011;5555;59.622;16.556;2022-08-01T11:54:24;3.47;;;2.27;;
11004;SDS011;5555;59.622;16.556;2022-08-01T11:56:57;3.17;;;2.27;;
11004;SDS011;5555;59.622;16.556;2022-08-01T11:59:24;2.20;;;2.00;;
11004;SDS011;5555;59.622;16.556;2022-08-01T12:01:50;2.43;;;2.23;;
11004;SDS011;5555;59.622;16.556;2022-08-01T12:04:17;2.70;;;2.27;;
11004;SDS011;5555;59.622;16.556;2022-08-01T12:06:42;4.00;;;2.00;;
11004;SDS011;5555;59.622;16.556;2022-08-01T12:09:42;2.00;;;1.63;;
11004;SDS011;5555;59.622;16.556;2022-08-01T12:12:01;1.90;;;1.70;;
11004;SDS011;5555;59.622;16.556;2022-08-01T12:14:27;1.70;;;1.60;;
11004;SDS011;5555;59.622;16.556;2022-08-01T12:16:53;2.10;;;1.67;;
11004;SDS011;5555;59.622;16.556;2022-08-01T12:19:22;2.80;;;1.60;;
11004;SDS011;5555;59.622;16.556;2022-08-01T12:24:35;2.20;;;1.70;;
11004;SDS011;5555;59.622;16.556;2022-08-01T12:27:02;3.33;;;1.97;;
11004;SDS011;5555;59.622;16.556;2022-08-01T12:29:36;1.77;;;1.63;;
11004;SDS011;5555;59.622;16.556;2022-08-01T12:34:56;2.57;;;1.83;;
11004;SDS011;5555;59.622;16.556;2022-08-01T12:37:25;2.10;;;1.90;;
11004;SDS011;5555;59.622;16.556;2022-08-01T12:39:51;3.23;;;1.90;;
11004;SDS011;5555;59.622;16.556;2022-08-01T12:42:17;2.73;;;2.00;;
11004;SDS011;5555;59.622;16.556;2022-08-01T12:44:44;2.60;;;1.70;;
11004;SDS011;5555;59.622;16.556;2022-08-01T12:47:16;2.30;;;1.63;;
11004;SDS011;5555;59.622;16.556;2022-08-01T12:49:43;2.57;;;1.70;;
11004;SDS011;5555;59.622;16.556;2022-08-01T12:52:10;2.20;;;1.67;;
11004;SDS011;5555;59.622;16.556;2022-08-01T12:57:33;4.93;;;2.00;;
11004;SDS011;5555;59.622;16.556;2022-08-01T13:00:07;1.90;;;1.67;;
11004;SDS011;5555;59.622;16.556;2022-08-01T13:03:01;3.33;;;1.80;;
11004;SDS011;5555;59.622;16.556;2022-08-01T13:05:48;1.73;;;1.50;;
11004;SDS011;5555;59.622;16.556;2022-08-01T13:10:48;1.80;;;1.47;;
11004;SDS011;5555;59.622;16.556;2022-08-01T13:13:15;2.53;;;1.73;;
11004;SDS011;5555;59.622;16.556;2022-08-01T13:15:44;1.47;;;1.37;;
11004;SDS011;5555;59.622;16.556;2022-08-01T13:18:24;1.77;;;1.40;;
11004;SDS011;5555;59.622;16.556;2022-08-01T13:24:12;2.30;;;1.57;;
11004;SDS011;5555;59.622;16.556;2022-08-01T13:29:05;1.23;;;1.10;;
11004;SDS011;5555;59.622;16.556;2022-08-01T13:31:32;2.00;;;1.30;;
11004;SDS011;5555;59.622;16.556;2022-08-01T13:33:59;3.23;;;1.30;;
11004;SDS011;5555;59.622;16.556;2022-08-01T13:36:25;1.47;;;1.03;;
11004;SDS011;5555;59.622;16.556;2022-08-01T13:38:53;1.30;;;1.20;;
11004;SDS011;5555;59.622;16.556;2022-08-01T13:41:37;2.70;;;1.30;;
11004;SDS011;5555;59.622;16.556;2022-08-01T13:44:03;2.90;;;1.33;;
11004;SDS011;5555;59.622;16.556;2022-08-01T13:46:29;1.30;;;1.20;;
11004;SDS011;5555;59.622;16.556;2022-08-01T13:48:56;2.87;;;1.10;;
11004;SDS011;5555;59.622;16.556;2022-08-01T13:51:23;1.77;;;1.20;;
11004;SDS011;5555;59.622;16.556;2022-08-01T13:53:49;1.67;;;1.00;;
11004;SDS011;5555;59.622;16.556;2022-08-01T13:56:14;1.27;;;1.17;;
11004;SDS011;5555;59.622;16.556;2022-08-01T13:58:42;2.13;;;1.40;;
11004;SDS011;5555;59.622;16.556;2022-08-01T14:01:08;1.10;;;1.00;;
11004;SDS011;5555;59.622;16.556;2022-08-01T14:03:34;1.60;;;1.20;;
11004;SDS011;5555;59.622;16.556;2022-08-01T14:06:00;2.57;;;1.40;;
11004;SDS011;5555;59.622;16.556;2022-08-01T14:08:26;1.57;;;0.93;;
11004;SDS011;5555;59.622;16.556;2022-08-01T14:10:52;3.17;;;1.15;;
11004;SDS011;5555;59.622;16.556;2022-08-01T14:13:18;1.30;;;1.05;;
11004;SDS011;5555;59.622;16.556;2022-08-01T14:15:44;2.05;;;0.90;;
11004;SDS011;5555;59.622;16.556;2022-08-01T14:18:10;1.75;;;0.90;;
11004;SDS011;5555;59.622;16.556;2022-08-01T14:20:36;1.25;;;1.00;;
11004;SDS011;5555;59.622;16.556;2022-08-01T14:23:02;1.15;;;1.00;;
11004;SDS011;5555;59.622;16.556;2022-08-01T14:25:28;1.70;;;0.90;;
11004;SDS011;5555;59.622;16.556;2022-08-01T14:27:54;1.58;;;1.00;;
11004;SDS011;5555;59.622;16.556;2022-08-01T14:30:20;2.20;;;1.00;;
11004;SDS011;5555;59.622;16.556;2022-08-01T14:32:45;1.63;;;0.95;;
11004;SDS011;5555;59.622;16.556;2022-08-01T14:35:12;1.90;;;0.90;;
11004;SDS011;5555;59.622;16.556;2022-08-01T14:37:37;1.20;;;0.98;;
11004;SDS011;5555;59.622;16.556;2022-08-01T14:40:03;0.82;;;0.70;;
11004;SDS011;5555;59.622;16.556;2022-08-01T14:42:33;1.02;;;0.70;;
11004;SDS011;5555;59.622;16.556;2022-08-01T14:45:00;0.82;;;0.80;;
11004;SDS011;5555;59.622;16.556;2022-08-01T14:47:25;1.48;;;0.93;;
11004;SDS011;5555;59.622;16.556;2022-08-01T14:49:51;3.10;;;0.95;;
11004;SDS011;5555;59.622;16.556;2022-08-01T14:52:17;1.05;;;0.80;;
11004;SDS011;5555;59.622;16.556;2022-08-01T14:54:42;1.35;;;1.15;;
11004;SDS011;5555;59.622;16.556;2022-08-01T14:57:08;0.77;;;0.70;;
11004;SDS011;5555;59.622;16.556;2022-08-01T14:59:34;1.67;;;0.98;;
11004;SDS011;5555;59.622;16.556;2022-08-01T15:02:00;1.10;;;1.00;;
11004;SDS011;5555;59.622;16.556;2022-08-01T15:04:26;1.00;;;0.90;;
11004;SDS011;5555;59.622;16.556;2022-08-01T15:06:52;1.88;;;1.00;;
11004;SDS011;5555;59.622;16.556;2022-08-01T15:09:18;1.55;;;0.85;;
11004;SDS011;5555;59.622;16.556;2022-08-01T15:11:44;1.40;;;0.80;;
11004;SDS011;5555;59.622;16.556;2022-08-01T15:14:11;0.98;;;0.70;;
11004;SDS011;5555;59.622;16.556;2022-08-01T15:16:56;1.42;;;0.80;;
11004;SDS011;5555;59.622;16.556;2022-08-01T15:19:21;1.05;;;0.80;;
11004;SDS011;5555;59.622;16.556;2022-08-01T15:21:47;3.17;;;1.17;;
11004;SDS011;5555;59.622;16.556;2022-08-01T15:24:13;1.00;;;0.77;;
11004;SDS011;5555;59.622;16.556;2022-08-01T15:26:38;0.70;;;0.60;;
11004;SDS011;5555;59.622;16.556;2022-08-01T15:29:04;1.00;;;0.70;;
11004;SDS011;5555;59.622;16.556;2022-08-01T15:31:31;0.80;;;0.68;;
11004;SDS011;5555;59.622;16.556;2022-08-01T15:33:57;1.33;;;0.60;;
11004;SDS011;5555;59.622;16.556;2022-08-01T15:36:23;3.63;;;0.90;;
11004;SDS011;5555;59.622;16.556;2022-08-01T15:38:48;0.73;;;0.73;;
11004;SDS011;5555;59.622;16.556;2022-08-01T15:41:14;0.90;;;0.70;;
11004;SDS011;5555;59.622;16.556;2022-08-01T15:43:39;0.80;;;0.70;;
11004;SDS011;5555;59.622;16.556;2022-08-01T15:46:05;0.88;;;0.60;;
11004;SDS011;5555;59.622;16.556;2022-08-01T15:48:31;0.70;;;0.70;;
11004;SDS011;5555;59.622;16.556;2022-08-01T15:50:56;1.88;;;0.70;;
11004;SDS011;5555;59.622;16.556;2022-08-01T15:53:22;0.60;;;0.60;;
11004;SDS011;5555;59.622;16.556;2022-08-01T15:55:47;0.73;;;0.70;;